Time;durP1;ratioP1;P1;durP2;ratioP2;P2;SDS_P1;SDS_P2;PMS_P1;PMS_P2;Temp;Humidity;BMP_temperature;BMP_pressure;BME280_temperature;BME280_humidity;BME280_pressure;Samples;Min_cycle;Max_cycle;Signal;HPM_P1;HPM_P2
2022/09/28 00:01:25;;;;;;;2.23;2.03;;;9.20;99.90;;;;;;5053934;28;20415;-71
2022/09/28 00:03:53;;;;;;;1.40;1.30;;;9.20;99.90;;;;;;5053613;28;20410;-70
2022/09/28 00:06:21;;;;;;;2.13;1.90;;;9.20;99.90;;;;;;5051267;28;20417;-72
2022/09/28 00:08:48;;;;;;;2.10;1.70;;;9.30;99.90;;;;;;5051421;28;20421;-71
2022/09/28 00:11:17;;;;;;;1.50;1.40;;;9.30;99.90;;;;;;5043555;28;20860;-71
2022/09/28 00:13:44;;;;;;;2.40;2.20;;;9.30;99.90;;;;;;5037201;28;20475;-71
2022/09/28 00:16:15;;;;;;;3.60;1.87;;;9.30;99.90;;;;;;5033765;28;20447;-71
2022/09/28 00:18:42;;;;;;;1.63;1.53;;;9.30;99.90;;;;;;5033625;28;20397;-73
2022/09/28 00:21:11;;;;;;;1.77;1.67;;;9.30;99.90;;;;;;5033779;28;20767;-72
2022/09/28 00:24:11;;;;;;;1.93;1.77;;;9.30;99.90;;;;;;5050134;28;20406;-72
2022/09/28 00:26:23;;;;;;;2.40;2.20;;;9.30;99.90;;;;;;5052485;28;20426;-71
2022/09/28 00:28:53;;;;;;;2.50;2.30;;;9.30;99.90;;;;;;5033530;28;20510;-72
2022/09/28 00:31:19;;;;;;;3.60;2.40;;;9.30;99.90;;;;;;5033464;28;20427;-72
2022/09/28 00:33:52;;;;;;;4.40;2.60;;;9.30;99.90;;;;;;5033406;28;20444;-71
2022/09/28 00:36:18;;;;;;;2.53;2.10;;;9.30;99.90;;;;;;5033210;28;20464;-71
2022/09/28 00:38:45;;;;;;;3.30;2.27;;;9.30;99.90;;;;;;5033683;28;20398;-71
2022/09/28 00:41:11;;;;;;;2.60;2.40;;;9.30;99.90;;;;;;5053300;28;20408;-71
2022/09/28 00:43:36;;;;;;;3.20;2.17;;;9.20;99.90;;;;;;5051163;28;20473;-71
2022/09/28 00:46:12;;;;;;;3.93;2.43;;;9.20;99.90;;;;;;5032864;28;20169;-71
2022/09/28 00:48:41;;;;;;;2.53;1.87;;;9.20;99.90;;;;;;5032925;28;20654;-71
2022/09/28 00:51:11;;;;;;;2.47;2.27;;;9.20;99.90;;;;;;5033184;28;20815;-71
2022/09/28 00:53:41;;;;;;;2.67;2.13;;;9.20;99.90;;;;;;5032931;28;20478;-71
2022/09/28 00:56:11;;;;;;;2.10;2.00;;;9.20;99.90;;;;;;5032273;28;20412;-72
2022/09/28 00:58:44;;;;;;;2.60;2.10;;;9.20;99.90;;;;;;5032579;28;20898;-71
2022/09/28 01:01:11;;;;;;;2.23;2.03;;;9.20;99.90;;;;;;5032699;28;20412;-72
2022/09/28 01:03:40;;;;;;;2.30;2.10;;;9.20;99.90;;;;;;5032752;28;20411;-71
2022/09/28 01:06:07;;;;;;;3.10;2.80;;;9.10;99.90;;;;;;5032928;28;20415;-71
2022/09/28 01:08:34;;;;;;;2.43;2.23;;;9.10;99.90;;;;;;5033260;28;20404;-71
2022/09/28 01:11:00;;;;;;;2.80;2.03;;;9.10;99.90;;;;;;5032733;28;20420;-72
2022/09/28 01:13:27;;;;;;;2.83;2.13;;;9.10;99.90;;;;;;5033017;28;20469;-71
2022/09/28 01:16:01;;;;;;;3.70;2.50;;;9.20;99.90;;;;;;5052169;28;20493;-71
2022/09/28 01:18:37;;;;;;;3.00;2.30;;;9.20;99.90;;;;;;5052638;28;20918;-71
2022/09/28 01:21:10;;;;;;;2.83;2.43;;;9.20;99.90;;;;;;5052315;28;20406;-71
2022/09/28 01:24:08;;;;;;;2.63;2.40;;;9.20;99.90;;;;;;5052581;28;20500;-71
2022/09/28 01:27:04;;;;;;;2.47;2.27;;;9.20;99.90;;;;;;5052008;28;20932;-71
2022/09/28 01:29:49;;;;;;;3.40;3.00;;;9.20;99.90;;;;;;5032295;28;20414;-71
2022/09/28 01:32:35;;;;;;;2.60;2.20;;;9.20;99.90;;;;;;5031800;28;20464;-71
2022/09/28 01:35:06;;;;;;;4.70;1.87;;;9.20;99.90;;;;;;5032175;28;20438;-71
2022/09/28 01:37:47;;;;;;;3.70;2.00;;;9.20;99.90;;;;;;5030821;28;20449;-71
2022/09/28 01:40:14;;;;;;;3.40;2.43;;;9.20;99.90;;;;;;5032278;28;20966;-71
2022/09/28 01:42:43;;;;;;;4.20;2.53;;;9.10;99.90;;;;;;5032022;28;20422;-71
2022/09/28 01:45:17;;;;;;;4.00;2.33;;;9.20;99.90;;;;;;5032203;28;20498;-72
2022/09/28 01:47:45;;;;;;;2.33;1.87;;;9.10;99.90;;;;;;5032148;28;20411;-72
2022/09/28 01:50:15;;;;;;;2.20;2.00;;;9.10;99.90;;;;;;5032016;28;20759;-72
2022/09/28 01:52:54;;;;;;;2.33;1.83;;;9.10;99.90;;;;;;5031802;28;20628;-71
2022/09/28 01:55:31;;;;;;;2.10;1.90;;;9.10;99.90;;;;;;5031877;28;20960;-71
2022/09/28 01:58:28;;;;;;;2.20;2.10;;;9.00;99.90;;;;;;5031862;28;20416;-71
2022/09/28 02:01:08;;;;;;;2.33;2.10;;;9.00;99.90;;;;;;5031861;28;20407;-72
2022/09/28 02:03:41;;;;;;;2.27;2.10;;;9.00;99.90;;;;;;5031984;28;20503;-71
2022/09/28 02:06:24;;;;;;;2.60;2.40;;;9.00;99.90;;;;;;5031838;28;20404;-72
2022/09/28 02:08:55;;;;;;;2.67;1.97;;;9.10;99.90;;;;;;5031918;28;20845;-72
2022/09/28 02:11:21;;;;;;;1.83;1.70;;;9.10;99.90;;;;;;5031830;28;20422;-71
2022/09/28 02:13:59;;;;;;;2.63;2.00;;;9.10;99.90;;;;;;5031622;28;20474;-72
2022/09/28 02:16:36;;;;;;;2.60;2.40;;;9.10;99.90;;;;;;5031723;28;20772;-72
2022/09/28 02:19:03;;;;;;;3.50;1.90;;;9.10;99.90;;;;;;5031860;28;20396;-72
2022/09/28 02:21:35;;;;;;;2.00;1.90;;;9.10;99.90;;;;;;5031707;28;20526;-73
2022/09/28 02:24:07;;;;;;;2.50;2.30;;;9.10;99.90;;;;;;5032043;28;20757;-72
2022/09/28 02:26:38;;;;;;;2.33;2.13;;;9.10;99.90;;;;;;5031692;28;20407;-72
2022/09/28 02:29:03;;;;;;;2.67;2.40;;;9.00;99.90;;;;;;5031770;28;20457;-72
2022/09/28 02:31:30;;;;;;;3.37;2.90;;;9.10;99.90;;;;;;5044817;28;20491;-72
2022/09/28 02:33:56;;;;;;;7.00;3.00;;;9.10;99.90;;;;;;5051485;28;20693;-72
2022/09/28 02:36:25;;;;;;;3.40;2.60;;;9.10;99.90;;;;;;5051452;28;20396;-73
2022/09/28 02:38:51;;;;;;;3.77;3.00;;;9.00;99.90;;;;;;5051466;28;20496;-72
2022/09/28 02:41:31;;;;;;;4.00;3.60;;;9.10;99.90;;;;;;5051560;28;20477;-72
2022/09/28 02:44:09;;;;;;;3.87;2.60;;;9.10;99.90;;;;;;5051629;28;20779;-71
2022/09/28 02:46:59;;;;;;;4.00;3.17;;;9.10;99.90;;;;;;5051311;28;20903;-71
2022/09/28 02:49:30;;;;;;;2.97;2.40;;;9.00;99.90;;;;;;5051618;28;20408;-71
2022/09/28 02:52:21;;;;;;;3.60;3.30;;;9.00;99.90;;;;;;5051746;28;20502;-70
2022/09/28 02:55:12;;;;;;;4.70;3.50;;;9.00;99.90;;;;;;5051446;28;20403;-71
2022/09/28 02:58:06;;;;;;;3.97;3.03;;;9.00;99.90;;;;;;5051474;28;20444;-71
2022/09/28 03:00:40;;;;;;;5.73;3.50;;;8.90;99.90;;;;;;5051369;28;20429;-71
2022/09/28 03:03:15;;;;;;;3.93;3.43;;;8.90;99.90;;;;;;5051174;28;20513;-71
2022/09/28 03:05:59;;;;;;;3.73;2.70;;;8.90;99.90;;;;;;5051416;28;20392;-72
2022/09/28 03:08:28;;;;;;;4.30;3.40;;;8.90;99.90;;;;;;5051286;28;20422;-72
2022/09/28 03:11:15;;;;;;;5.73;4.00;;;9.00;99.90;;;;;;5051181;28;20410;-72
2022/09/28 03:13:42;;;;;;;3.97;3.03;;;8.90;99.90;;;;;;5051026;28;20978;-71
2022/09/28 03:16:14;;;;;;;6.37;3.73;;;8.90;99.90;;;;;;5051026;28;20406;-71
2022/09/28 03:18:40;;;;;;;5.83;3.70;;;8.90;99.90;;;;;;5051237;28;20398;-71
2022/09/28 03:21:08;;;;;;;4.80;3.67;;;8.90;99.90;;;;;;5053611;28;20907;-71
2022/09/28 03:23:33;;;;;;;4.40;3.90;;;8.90;99.90;;;;;;5054929;28;20418;-71
2022/09/28 03:25:59;;;;;;;4.07;3.40;;;8.80;99.90;;;;;;5054495;28;20407;-71
2022/09/28 03:28:25;;;;;;;4.50;3.37;;;8.80;99.90;;;;;;5054787;28;20172;-71
2022/09/28 03:30:51;;;;;;;4.83;3.27;;;8.80;99.90;;;;;;5054949;28;20177;-71
2022/09/28 03:33:18;;;;;;;5.77;4.10;;;8.80;99.90;;;;;;5054510;28;20509;-70
2022/09/28 03:35:49;;;;;;;3.43;2.83;;;8.70;99.90;;;;;;5054645;28;20408;-71
2022/09/28 03:38:19;;;;;;;3.97;3.17;;;8.60;99.90;;;;;;5054494;28;20412;-71
2022/09/28 03:40:55;;;;;;;3.60;3.17;;;8.60;99.90;;;;;;5054416;28;20488;-71
2022/09/28 03:43:21;;;;;;;7.60;4.97;;;8.60;99.90;;;;;;5054446;28;20441;-71
2022/09/28 03:45:55;;;;;;;4.80;4.10;;;8.60;99.90;;;;;;5054068;28;20413;-71
2022/09/28 03:48:25;;;;;;;6.10;3.50;;;8.60;99.90;;;;;;5054193;28;20417;-71
2022/09/28 03:50:53;;;;;;;5.10;3.70;;;8.60;99.90;;;;;;5054255;28;20407;-71
2022/09/28 03:53:19;;;;;;;5.27;3.60;;;8.70;99.90;;;;;;5052812;28;20465;-72
2022/09/28 03:55:44;;;;;;;6.27;4.33;;;8.70;99.90;;;;;;5053986;28;20894;-71
2022/09/28 03:58:10;;;;;;;5.10;3.87;;;8.70;99.90;;;;;;5054098;28;20168;-71
2022/09/28 04:00:37;;;;;;;4.17;3.73;;;8.70;99.90;;;;;;5054204;28;20222;-72
2022/09/28 04:03:03;;;;;;;3.53;3.23;;;8.60;99.90;;;;;;5053927;28;20199;-72
2022/09/28 04:05:28;;;;;;;4.07;3.10;;;8.60;99.90;;;;;;5053797;28;20777;-71
2022/09/28 04:07:57;;;;;;;4.57;3.67;;;8.60;99.90;;;;;;5054156;28;20177;-72
2022/09/28 04:10:24;;;;;;;4.80;3.83;;;8.50;99.90;;;;;;5054017;28;20160;-72
2022/09/28 04:12:54;;;;;;;8.00;3.90;;;8.40;99.90;;;;;;5053664;28;20465;-72
2022/09/28 04:15:20;;;;;;;4.33;3.30;;;8.40;99.90;;;;;;5053920;28;20406;-71
2022/09/28 04:17:45;;;;;;;4.70;3.83;;;8.30;99.90;;;;;;5053856;28;20412;-71
2022/09/28 04:20:11;;;;;;;5.63;3.47;;;8.30;99.90;;;;;;5053678;28;20625;-72
2022/09/28 04:22:36;;;;;;;6.20;4.50;;;8.20;99.90;;;;;;5053638;28;20196;-71
2022/09/28 04:25:03;;;;;;;3.97;3.43;;;8.20;99.90;;;;;;5053548;28;20175;-72
2022/09/28 04:30:13;;;;;;;4.67;3.37;;;8.10;99.90;;;;;;5053565;28;20441;-72
2022/09/28 04:32:39;;;;;;;6.17;4.40;;;8.10;99.90;;;;;;5053223;28;20449;-71
2022/09/28 04:35:05;;;;;;;5.40;3.60;;;8.00;99.90;;;;;;5053233;28;20236;-72
2022/09/28 04:37:30;;;;;;;5.80;4.63;;;8.10;99.90;;;;;;5053402;28;20433;-72
2022/09/28 04:39:56;;;;;;;6.57;5.40;;;8.10;99.90;;;;;;5053414;28;20831;-72
2022/09/28 04:42:22;;;;;;;4.40;3.90;;;8.10;99.90;;;;;;5053205;28;20233;-72
2022/09/28 04:44:47;;;;;;;7.57;4.87;;;8.10;99.90;;;;;;5053122;28;20179;-71
2022/09/28 04:47:13;;;;;;;4.93;4.00;;;8.20;99.90;;;;;;5053421;28;20585;-72
2022/09/28 04:49:38;;;;;;;7.67;5.80;;;8.30;99.90;;;;;;5053051;28;20176;-72
2022/09/28 04:54:36;;;;;;;6.43;4.40;;;8.30;99.90;;;;;;5040420;28;20207;-77
2022/09/28 04:57:02;;;;;;;5.70;4.00;;;8.30;99.90;;;;;;5052728;28;20403;-76
2022/09/28 04:59:28;;;;;;;7.87;5.70;;;8.30;99.90;;;;;;5054137;28;20509;-76
2022/09/28 05:01:53;;;;;;;8.87;5.50;;;8.30;99.90;;;;;;5054001;28;20400;-75
2022/09/28 05:04:19;;;;;;;7.83;5.50;;;8.40;99.90;;;;;;5053814;28;20204;-76
2022/09/28 05:06:44;;;;;;;7.57;5.03;;;8.40;99.90;;;;;;5053736;28;20182;-77
2022/09/28 05:09:10;;;;;;;5.00;4.23;;;8.40;99.90;;;;;;5053932;28;20721;-77
2022/09/28 05:11:35;;;;;;;6.13;4.53;;;8.40;99.90;;;;;;5054020;28;20169;-77
2022/09/28 05:14:01;;;;;;;5.00;4.17;;;8.40;99.90;;;;;;5053426;28;20212;-76
2022/09/28 05:16:28;;;;;;;6.00;4.77;;;8.40;99.90;;;;;;5053469;28;20176;-77
2022/09/28 05:18:55;;;;;;;5.50;4.00;;;8.40;99.90;;;;;;5053765;28;20167;-77
2022/09/28 05:21:23;;;;;;;4.70;3.70;;;8.40;99.90;;;;;;5053981;28;20779;-77
2022/09/28 05:23:49;;;;;;;8.60;4.77;;;8.50;99.90;;;;;;5054293;28;20428;-77
2022/09/28 05:26:14;;;;;;;5.67;5.10;;;8.40;99.90;;;;;;5054083;28;20505;-76
2022/09/28 05:28:40;;;;;;;4.57;4.13;;;8.50;99.90;;;;;;5054369;28;20185;-77
2022/09/28 05:31:05;;;;;;;6.30;4.87;;;8.50;99.90;;;;;;5055233;28;20215;-76
2022/09/28 05:33:31;;;;;;;5.07;4.27;;;8.50;99.90;;;;;;5058110;28;20204;-77
2022/09/28 05:35:57;;;;;;;5.47;4.87;;;8.60;99.90;;;;;;5061327;28;20178;-76
2022/09/28 05:38:23;;;;;;;6.07;4.30;;;8.60;99.90;;;;;;5058960;28;20436;-76
2022/09/28 05:40:49;;;;;;;5.17;4.37;;;8.60;99.90;;;;;;5060441;28;20191;-76
2022/09/28 05:43:15;;;;;;;5.90;4.10;;;8.60;99.90;;;;;;5065021;28;20484;-76
2022/09/28 05:45:40;;;;;;;8.27;5.73;;;8.60;99.90;;;;;;5063131;28;20676;-76
2022/09/28 05:48:06;;;;;;;10.03;5.93;;;8.60;99.90;;;;;;5068901;28;20181;-76
2022/09/28 05:50:31;;;;;;;4.63;3.90;;;8.60;99.90;;;;;;5067108;28;20169;-76
2022/09/28 05:53:02;;;;;;;5.50;4.40;;;8.60;99.90;;;;;;5066054;28;20227;-76
2022/09/28 05:55:28;;;;;;;6.10;4.77;;;8.70;99.90;;;;;;5062418;28;20248;-76
2022/09/28 05:57:58;;;;;;;8.23;4.83;;;8.70;99.90;;;;;;5065486;28;20501;-76
2022/09/28 06:00:23;;;;;;;6.13;4.23;;;8.70;99.90;;;;;;5056881;28;20412;-76
2022/09/28 06:03:00;;;;;;;7.07;4.33;;;8.80;99.90;;;;;;5054108;28;20424;-76
2022/09/28 06:05:27;;;;;;;8.53;4.27;;;8.80;99.90;;;;;;5053817;28;20172;-75
2022/09/28 06:07:57;;;;;;;6.30;4.23;;;8.90;99.90;;;;;;5054414;28;20930;-75
2022/09/28 06:10:25;;;;;;;10.97;4.40;;;9.00;99.90;;;;;;5053868;28;20493;-75
2022/09/28 06:12:55;;;;;;;7.47;5.60;;;9.10;99.90;;;;;;5054196;28;20494;-74
2022/09/28 06:15:23;;;;;;;7.20;4.40;;;9.10;99.90;;;;;;5053958;28;20763;-75
2022/09/28 06:17:58;;;;;;;8.97;4.57;;;9.20;99.90;;;;;;5053696;28;20397;-75
2022/09/28 06:20:30;;;;;;;6.53;4.10;;;9.20;99.90;;;;;;5035508;28;20897;-74
2022/09/28 06:22:55;;;;;;;5.50;4.50;;;9.40;99.90;;;;;;5052582;28;20514;-73
2022/09/28 06:25:22;;;;;;;7.40;5.63;;;9.70;99.90;;;;;;5053417;28;20454;-75
2022/09/28 06:27:55;;;;;;;5.70;4.17;;;10.00;99.90;;;;;;5045814;28;20198;-76
2022/09/28 06:30:23;;;;;;;4.30;3.77;;;10.60;99.90;;;;;;5046669;28;20409;-75
2022/09/28 06:32:55;;;;;;;4.90;3.70;;;11.00;99.90;;;;;;5040452;28;20519;-75
2022/09/28 06:35:21;;;;;;;5.23;3.77;;;11.30;99.90;;;;;;5033110;28;20437;-75
2022/09/28 06:37:47;;;;;;;6.43;3.97;;;11.20;99.90;;;;;;5033945;28;20827;-76
2022/09/28 06:40:13;;;;;;;5.40;4.37;;;11.30;99.90;;;;;;5033756;28;20402;-76
2022/09/28 06:42:38;;;;;;;3.20;2.70;;;11.70;99.90;;;;;;5016184;28;20670;-76
2022/09/28 06:45:05;;;;;;;5.30;4.00;;;12.20;99.90;;;;;;5033272;28;20171;-76
2022/09/28 06:47:32;;;;;;;5.20;3.90;;;12.50;99.90;;;;;;5033888;28;20629;-76
2022/09/28 06:49:58;;;;;;;4.10;3.57;;;12.40;99.90;;;;;;5032960;28;20414;-76
2022/09/28 06:52:24;;;;;;;4.10;3.63;;;12.20;99.90;;;;;;5033077;28;20509;-76
2022/09/28 06:54:50;;;;;;;3.83;3.43;;;12.20;99.90;;;;;;5034642;28;20439;-76
2022/09/28 06:57:16;;;;;;;4.60;4.10;;;12.80;99.90;;;;;;5037502;28;20163;-75
2022/09/28 06:59:42;;;;;;;4.80;3.50;;;12.90;99.90;;;;;;5037382;28;20827;-76
2022/09/28 07:02:13;;;;;;;4.43;3.60;;;12.80;99.90;;;;;;5024492;28;20416;-76
2022/09/28 07:04:42;;;;;;;5.10;3.10;;;13.00;99.90;;;;;;5037299;28;20160;-76
2022/09/28 07:07:09;;;;;;;5.77;3.83;;;13.10;99.90;;;;;;5037220;28;20746;-76
2022/09/28 07:09:35;;;;;;;3.87;3.43;;;13.60;99.90;;;;;;5037406;28;20486;-76
2022/09/28 07:12:03;;;;;;;3.70;3.10;;;13.80;99.90;;;;;;5037016;28;20780;-76
2022/09/28 07:14:32;;;;;;;5.90;4.27;;;14.50;99.90;;;;;;5036390;28;20444;-76
2022/09/28 07:16:57;;;;;;;5.97;3.60;;;14.20;99.90;;;;;;5037207;28;20395;-76
2022/09/28 07:19:23;;;;;;;3.97;3.57;;;14.10;99.90;;;;;;5038163;28;20415;-76
2022/09/28 07:21:51;;;;;;;4.73;3.43;;;14.30;99.90;;;;;;5038761;28;20167;-76
2022/09/28 07:24:17;;;;;;;5.13;4.40;;;14.30;99.90;;;;;;5035678;28;20194;-77
2022/09/28 07:26:44;;;;;;;5.00;4.10;;;14.70;99.90;;;;;;5035615;28;20764;-76
2022/09/28 07:29:10;;;;;;;4.63;4.20;;;14.20;99.90;;;;;;5035841;28;20173;-76
2022/09/28 07:31:36;;;;;;;5.53;3.73;;;14.30;99.90;;;;;;5035959;28;20446;-76
2022/09/28 07:34:02;;;;;;;9.10;3.50;;;14.60;99.90;;;;;;5036205;28;20588;-76
2022/09/28 07:36:29;;;;;;;4.80;4.00;;;15.00;99.90;;;;;;5044682;28;20426;-77
2022/09/28 07:38:54;;;;;;;4.60;4.20;;;15.20;99.90;;;;;;5049239;28;20413;-76
2022/09/28 07:41:31;;;;;;;4.80;4.40;;;15.10;99.90;;;;;;5057365;28;20410;-77
2022/09/28 07:44:06;;;;;;;9.23;4.63;;;14.30;99.90;;;;;;5056668;28;20208;-75
2022/09/28 07:46:35;;;;;;;4.43;4.00;;;14.80;99.90;;;;;;5055156;28;20405;-76
2022/09/28 07:49:04;;;;;;;5.13;4.63;;;15.60;99.90;;;;;;5055327;28;20441;-76
2022/09/28 07:51:30;;;;;;;4.93;4.47;;;14.70;99.90;;;;;;5055423;28;20910;-76
2022/09/28 07:53:56;;;;;;;6.83;4.60;;;14.70;99.90;;;;;;5054827;28;20976;-75
2022/09/28 07:56:21;;;;;;;5.53;4.97;;;14.20;99.90;;;;;;5055120;28;20440;-75
2022/09/28 07:58:48;;;;;;;5.90;4.77;;;13.70;99.90;;;;;;5017392;28;20173;-75
2022/09/28 08:01:15;;;;;;;7.97;5.13;;;13.20;99.90;;;;;;5035781;28;20193;-75
2022/09/28 08:03:45;;;;;;;22.70;16.33;;;13.20;99.90;;;;;;5035579;28;20516;-74
2022/09/28 08:06:13;;;;;;;6.33;5.53;;;14.10;99.90;;;;;;5035136;28;20410;-75
2022/09/28 08:08:43;;;;;;;6.87;4.80;;;15.00;99.90;;;;;;5035322;28;20464;-75
2022/09/28 08:11:13;;;;;;;8.03;4.93;;;13.80;99.90;;;;;;5035301;28;20441;-75
2022/09/28 08:13:39;;;;;;;6.93;4.43;;;13.50;99.90;;;;;;5035222;28;20446;-74
2022/09/28 08:16:07;;;;;;;6.93;4.73;;;12.90;99.90;;;;;;5035214;28;20410;-74
2022/09/28 08:18:33;;;;;;;7.50;4.30;;;12.80;99.90;;;;;;5035592;28;20164;-75
2022/09/28 08:23:43;;;;;;;5.93;4.63;;;13.10;99.90;;;;;;5031398;28;20515;-74
2022/09/28 08:26:09;;;;;;;5.27;4.27;;;12.90;99.90;;;;;;4997199;28;20420;-74
2022/09/28 08:28:34;;;;;;;5.17;4.67;;;13.20;99.90;;;;;;5014817;28;20170;-75
2022/09/28 08:31:00;;;;;;;5.53;4.70;;;13.40;99.90;;;;;;5015024;28;20173;-75
2022/09/28 08:33:26;;;;;;;7.70;4.87;;;13.30;99.90;;;;;;5015154;28;20196;-75
2022/09/28 08:35:59;;;;;;;7.07;4.70;;;13.00;99.90;;;;;;5021165;28;20413;-74
2022/09/28 08:38:27;;;;;;;7.47;4.30;;;13.30;99.90;;;;;;5034740;28;20738;-75
2022/09/28 08:41:37;;;;;;;6.80;5.33;;;12.70;99.90;;;;;;5034909;28;20876;-74
2022/09/28 08:44:09;;;;;;;6.80;5.70;;;12.70;99.90;;;;;;4998121;28;20489;-74
2022/09/28 08:46:39;;;;;;;5.60;4.13;;;12.80;99.90;;;;;;5034558;28;20904;-75
2022/09/28 08:49:24;;;;;;;5.70;5.17;;;13.10;99.90;;;;;;5034706;28;20413;-75
2022/09/28 08:52:06;;;;;;;6.53;5.40;;;12.80;99.90;;;;;;5018246;28;20696;-74
2022/09/28 08:54:59;;;;;;;6.67;5.57;;;12.50;99.90;;;;;;5033893;28;20454;-75
2022/09/28 08:57:35;;;;;;;6.23;5.17;;;12.50;99.90;;;;;;5034074;28;20413;-74
2022/09/28 09:00:01;;;;;;;5.30;4.77;;;12.80;99.90;;;;;;5034758;28;20417;-75
2022/09/28 09:02:33;;;;;;;6.47;4.73;;;12.70;99.90;;;;;;5034595;28;20426;-74
2022/09/28 09:05:01;;;;;;;6.27;4.90;;;13.10;99.90;;;;;;5034701;28;20446;-75
2022/09/28 09:08:09;;;;;;;4.80;4.40;;;13.40;99.90;;;;;;5018654;28;20418;-75
2022/09/28 09:10:53;;;;;;;7.50;6.40;;;13.20;99.90;;;;;;4988394;28;20477;-75
2022/09/28 09:13:22;;;;;;;5.27;4.60;;;13.00;99.90;;;;;;5034894;28;20457;-75
2022/09/28 09:15:54;;;;;;;5.10;4.60;;;13.20;99.90;;;;;;5023410;28;20982;-75
2022/09/28 09:19:06;;;;;;;5.80;3.73;;;13.00;99.90;;;;;;5049459;28;20410;-74
2022/09/28 09:22:08;;;;;;;4.13;3.50;;;13.30;99.90;;;;;;5054415;28;20401;-74
2022/09/28 09:24:49;;;;;;;4.43;3.40;;;13.50;99.90;;;;;;5053961;28;20401;-75
2022/09/28 09:27:17;;;;;;;3.40;3.10;;;13.90;99.90;;;;;;5053291;28;20402;-74
2022/09/28 09:30:11;;;;;;;6.97;4.10;;;14.10;99.90;;;;;;5053106;28;20398;-74
2022/09/28 09:33:04;;;;;;;3.27;2.97;;;14.30;99.90;;;;;;5043398;28;20492;-74
2022/09/28 09:36:08;;;;;;;5.10;3.40;;;14.70;99.90;;;;;;5050476;28;20397;-74
2022/09/28 09:39:14;;;;;;;2.87;2.60;;;15.20;99.90;;;;;;5032766;28;20969;-74
2022/09/28 09:41:48;;;;;;;2.60;2.40;;;14.60;99.90;;;;;;4989414;28;20459;-75
2022/09/28 09:44:49;;;;;;;4.27;3.50;;;14.40;99.90;;;;;;5032748;28;20432;-74
2022/09/28 09:47:38;;;;;;;2.87;2.43;;;14.20;99.90;;;;;;5032463;28;20437;-74
2022/09/28 09:50:03;;;;;;;3.27;2.97;;;14.90;99.90;;;;;;5021097;28;20972;-73
2022/09/28 09:52:45;;;;;;;3.37;2.47;;;14.80;99.90;;;;;;5052236;28;20431;-74
2022/09/28 09:55:25;;;;;;;2.30;2.10;;;14.30;99.90;;;;;;5052886;28;20533;-74
2022/09/28 09:57:56;;;;;;;3.70;2.70;;;14.20;99.90;;;;;;5040109;28;20417;-73
2022/09/28 10:00:22;;;;;;;3.40;2.50;;;14.40;99.90;;;;;;5032343;28;20399;-73
2022/09/28 10:02:49;;;;;;;4.43;2.63;;;14.00;99.90;;;;;;5031191;28;20433;-74
2022/09/28 10:05:18;;;;;;;2.40;2.20;;;14.10;99.90;;;;;;5031984;28;20164;-74
2022/09/28 10:08:11;;;;;;;3.00;2.20;;;13.60;99.90;;;;;;5032051;28;20494;-74
2022/09/28 10:10:53;;;;;;;2.77;2.03;;;13.70;99.90;;;;;;5032396;28;20411;-73
2022/09/28 10:13:18;;;;;;;3.90;2.10;;;14.30;99.90;;;;;;5031997;28;20614;-73
2022/09/28 10:15:46;;;;;;;2.07;1.87;;;14.90;99.90;;;;;;5031753;28;20563;-74
2022/09/28 10:18:14;;;;;;;5.77;2.67;;;14.90;99.90;;;;;;5031935;28;20192;-73
2022/09/28 10:20:42;;;;;;;3.90;3.47;;;14.80;99.90;;;;;;5031866;28;20493;-73
2022/09/28 10:23:28;;;;;;;2.57;2.37;;;14.10;99.90;;;;;;5032206;28;20528;-76
2022/09/28 10:25:59;;;;;;;2.30;1.73;;;14.50;99.90;;;;;;5032115;28;20415;-76
2022/09/28 10:28:41;;;;;;;1.70;1.60;;;14.30;99.90;;;;;;5032539;28;20395;-74
2022/09/28 10:31:33;;;;;;;3.07;1.70;;;13.80;99.90;;;;;;5036313;28;20398;-74
2022/09/28 10:33:58;;;;;;;1.83;1.40;;;13.60;99.90;;;;;;5035633;28;20450;-74
2022/09/28 10:36:25;;;;;;;2.07;1.70;;;13.50;99.90;;;;;;5045754;28;20955;-75
2022/09/28 10:38:51;;;;;;;3.43;1.80;;;13.50;99.90;;;;;;5056098;28;20163;-75
2022/09/28 10:41:17;;;;;;;5.83;2.70;;;13.50;99.90;;;;;;5055909;28;20403;-74
2022/09/28 10:44:07;;;;;;;1.93;1.43;;;13.50;99.90;;;;;;5055637;28;20566;-75
2022/09/28 10:46:34;;;;;;;1.87;1.67;;;13.40;99.90;;;;;;5055822;28;20405;-76
2022/09/28 10:49:14;;;;;;;2.23;1.43;;;13.30;99.90;;;;;;5056336;28;20414;-75
2022/09/28 10:51:56;;;;;;;1.83;1.40;;;13.40;99.90;;;;;;5056199;28;20416;-76
2022/09/28 10:54:27;;;;;;;2.00;1.50;;;13.50;99.90;;;;;;5049501;28;20456;-74
2022/09/28 10:56:54;;;;;;;1.57;1.37;;;13.40;99.90;;;;;;5052274;28;20406;-74
2022/09/28 10:59:28;;;;;;;2.57;1.50;;;13.40;99.90;;;;;;5036413;28;20394;-74
2022/09/28 11:02:02;;;;;;;3.30;2.83;;;13.60;99.90;;;;;;5036004;28;20911;-74
2022/09/28 11:04:37;;;;;;;2.60;1.53;;;13.60;99.90;;;;;;5035466;28;20413;-74
2022/09/28 11:07:02;;;;;;;2.00;1.73;;;13.60;99.90;;;;;;5035666;28;20416;-74
2022/09/28 11:09:29;;;;;;;10.80;7.60;;;13.60;99.90;;;;;;5035596;28;20402;-75
2022/09/28 11:11:56;;;;;;;30.17;19.77;;;14.00;99.90;;;;;;5039727;28;20168;-74
2022/09/28 11:14:30;;;;;;;13.83;7.40;;;14.20;99.90;;;;;;5041362;28;20481;-75
2022/09/28 11:17:15;;;;;;;2.00;1.40;;;14.10;99.90;;;;;;5041255;28;20795;-76
2022/09/28 11:19:42;;;;;;;4.23;2.43;;;14.20;99.90;;;;;;5019884;28;20514;-74
2022/09/28 11:22:25;;;;;;;1.77;1.60;;;14.60;99.90;;;;;;5037630;28;20429;-73
2022/09/28 11:25:10;;;;;;;2.50;1.73;;;14.60;99.90;;;;;;5036867;28;20402;-75
2022/09/28 11:27:36;;;;;;;2.07;1.20;;;14.70;99.90;;;;;;5038943;28;20407;-75
2022/09/28 11:30:02;;;;;;;2.07;1.10;;;14.80;99.90;;;;;;5019278;28;20415;-74
2022/09/28 11:32:46;;;;;;;1.20;1.10;;;14.60;99.90;;;;;;5039337;28;20245;-74
2022/09/28 11:35:26;;;;;;;1.47;1.03;;;14.40;99.90;;;;;;5036236;28;20167;-74
2022/09/28 11:38:27;;;;;;;1.47;1.37;;;14.30;99.90;;;;;;5019820;28;20380;-75
2022/09/28 11:41:08;;;;;;;2.00;1.73;;;14.00;99.90;;;;;;4950075;28;20914;-75
2022/09/28 11:43:36;;;;;;;2.80;1.70;;;13.90;99.90;;;;;;5017679;28;20419;-75
2022/09/28 11:46:09;;;;;;;1.50;1.40;;;13.90;99.90;;;;;;5014566;28;20407;-75
2022/09/28 11:48:49;;;;;;;1.23;1.13;;;13.70;99.90;;;;;;5015130;28;20403;-76
2022/09/28 11:51:20;;;;;;;1.67;1.30;;;13.90;99.90;;;;;;5040436;28;20441;-75
2022/09/28 11:54:00;;;;;;;2.20;1.83;;;13.90;99.90;;;;;;5034400;28;20530;-74
2022/09/28 11:56:42;;;;;;;1.70;1.60;;;13.60;99.90;;;;;;5033789;28;20748;-74
2022/09/28 11:59:23;;;;;;;1.60;1.50;;;13.50;99.90;;;;;;5014637;28;20396;-74
2022/09/28 12:02:11;;;;;;;3.63;1.67;;;13.50;99.90;;;;;;5014641;28;20400;-73
2022/09/28 12:04:44;;;;;;;1.83;1.40;;;13.40;99.90;;;;;;5014906;28;20404;-74
2022/09/28 12:07:24;;;;;;;4.50;1.60;;;13.30;99.90;;;;;;5015031;28;20782;-74
2022/09/28 12:09:59;;;;;;;2.60;1.13;;;13.10;99.90;;;;;;5014700;28;20447;-74
2022/09/28 12:12:59;;;;;;;1.10;1.00;;;12.90;99.90;;;;;;5014838;28;20886;-74
2022/09/28 12:15:32;;;;;;;1.30;1.20;;;12.80;99.90;;;;;;5010011;28;20423;-74
2022/09/28 12:18:26;;;;;;;1.20;1.10;;;12.90;99.90;;;;;;5014676;28;20419;-74
2022/09/28 12:21:21;;;;;;;1.07;0.83;;;12.90;99.90;;;;;;5014439;28;20430;-74
2022/09/28 12:23:48;;;;;;;1.43;1.33;;;12.50;99.90;;;;;;5014392;28;20427;-74
2022/09/28 12:26:40;;;;;;;2.40;1.53;;;12.60;99.90;;;;;;5014583;28;20399;-74
2022/09/28 12:29:13;;;;;;;1.43;1.10;;;12.90;99.90;;;;;;5032999;28;20500;-74
2022/09/28 12:32:02;;;;;;;1.40;1.13;;;12.70;99.90;;;;;;5045792;28;20421;-74
2022/09/28 12:34:28;;;;;;;1.33;1.23;;;12.90;99.90;;;;;;5054505;28;20556;-74
2022/09/28 12:37:06;;;;;;;6.13;3.40;;;12.90;99.90;;;;;;5022808;28;20454;-74
2022/09/28 12:39:48;;;;;;;4.37;3.20;;;13.10;99.90;;;;;;5023035;28;20195;-74
2022/09/28 12:42:38;;;;;;;2.10;1.20;;;12.90;99.90;;;;;;5033938;28;20460;-73
2022/09/28 12:45:46;;;;;;;1.20;1.10;;;12.70;99.90;;;;;;5033659;28;20410;-74
2022/09/28 12:48:37;;;;;;;1.67;1.00;;;12.90;99.90;;;;;;5033557;28;20414;-74
2022/09/28 12:51:29;;;;;;;1.47;1.10;;;12.90;99.90;;;;;;5027773;28;20453;-73
2022/09/28 12:54:06;;;;;;;1.43;1.03;;;13.10;99.90;;;;;;5054611;28;20548;-77
2022/09/28 12:57:14;;;;;;;1.77;1.20;;;12.90;99.90;;;;;;5051894;28;20464;-77
2022/09/28 12:59:59;;;;;;;1.10;1.00;;;12.90;99.90;;;;;;5033377;28;20415;-77
2022/09/28 13:02:58;;;;;;;1.60;1.27;;;12.80;99.90;;;;;;5016273;28;20526;-77
2022/09/28 13:06:05;;;;;;;1.10;0.90;;;12.70;99.90;;;;;;5033059;28;20406;-77
2022/09/28 13:09:10;;;;;;;1.50;1.10;;;12.80;99.90;;;;;;5033310;28;20430;-76
2022/09/28 13:12:03;;;;;;;1.10;0.90;;;13.30;99.90;;;;;;5031230;28;20414;-77
2022/09/28 13:15:00;;;;;;;1.97;1.00;;;12.70;99.90;;;;;;5032142;28;20465;-77
2022/09/28 13:17:50;;;;;;;1.20;0.97;;;13.00;99.90;;;;;;5029840;28;20402;-77
2022/09/28 13:20:37;;;;;;;1.73;1.43;;;13.00;99.90;;;;;;5032962;28;20462;-75
2022/09/28 13:23:14;;;;;;;0.70;0.70;;;12.90;99.90;;;;;;5039746;28;20430;-78
2022/09/28 13:25:45;;;;;;;0.90;0.90;;;12.90;99.90;;;;;;5035476;28;20460;-77
2022/09/28 13:28:14;;;;;;;1.80;0.70;;;13.20;99.90;;;;;;5036872;28;20430;-79
2022/09/28 13:30:40;;;;;;;1.23;0.90;;;13.00;99.90;;;;;;5035618;28;20410;-80